createdAt,value
2018-09-28T00:01:53.259Z,8.32
2018-09-28T00:06:46.454Z,8.19
2018-09-28T00:11:39.847Z,8.15
2018-09-28T00:16:32.998Z,7.98
2018-09-28T00:21:26.198Z,7.93
2018-09-28T00:26:19.470Z,8.04
2018-09-28T00:31:12.622Z,8.24
2018-09-28T00:36:05.891Z,7.94
2018-09-28T00:40:59.396Z,7.74
2018-09-28T00:45:52.714Z,7.53
2018-09-28T00:50:45.976Z,7.50
2018-09-28T00:55:39.134Z,7.53
2018-09-28T01:00:32.636Z,7.37
2018-09-28T01:05:25.855Z,7.44
2018-09-28T01:10:19.164Z,7.52
2018-09-28T01:15:12.334Z,7.35
2018-09-28T01:20:05.656Z,7.25
2018-09-28T01:24:59.227Z,7.54
2018-09-28T01:29:52.465Z,7.46
2018-09-28T01:34:45.815Z,7.25
2018-09-28T01:39:39.033Z,7.14
2018-09-28T01:44:32.120Z,8.18
2018-09-28T01:49:25.393Z,8.78
2018-09-28T01:54:18.747Z,9.02
2018-09-28T01:59:12.002Z,8.56
2018-09-28T02:04:05.285Z,8.37
2018-09-28T02:08:58.628Z,8.09
2018-09-28T02:13:52.006Z,7.90
2018-09-28T02:18:45.325Z,7.63
2018-09-28T02:23:38.564Z,7.59
2018-09-28T02:28:32.000Z,7.77
2018-09-28T02:33:25.202Z,7.71
2018-09-28T02:38:18.500Z,7.47
2018-09-28T02:43:11.889Z,7.53
2018-09-28T02:48:05.310Z,7.62
2018-09-28T02:52:59.608Z,7.72
2018-09-28T02:57:53.112Z,7.66
2018-09-28T03:02:46.286Z,7.65
2018-09-28T03:07:39.434Z,7.60
2018-09-28T03:12:32.958Z,7.85
2018-09-28T03:17:26.123Z,7.63
2018-09-28T03:22:19.411Z,7.63
2018-09-28T03:27:12.787Z,7.58
2018-09-28T03:32:06.089Z,7.37
2018-09-28T03:36:59.346Z,7.28
2018-09-28T03:41:52.572Z,7.15
2018-09-28T03:46:46.206Z,7.10
2018-09-28T03:51:39.491Z,7.02
2018-09-28T03:56:32.841Z,6.83
2018-09-28T04:01:26.170Z,6.78
2018-09-28T04:06:19.671Z,6.63
2018-09-28T04:11:12.879Z,6.57
2018-09-28T04:16:06.041Z,6.43
2018-09-28T04:20:59.311Z,6.20
2018-09-28T04:25:52.474Z,6.26
2018-09-28T04:30:45.641Z,6.39
2018-09-28T04:35:39.919Z,6.48
2018-09-28T04:40:34.517Z,6.40
2018-09-28T04:45:27.814Z,6.49
2018-09-28T04:50:21.075Z,6.56
2018-09-28T04:55:14.398Z,6.81
2018-09-28T05:00:08.451Z,6.98
2018-09-28T05:05:02.083Z,7.06
2018-09-28T05:09:55.300Z,7.09
2018-09-28T05:14:48.919Z,7.33
2018-09-28T05:19:42.287Z,7.69
2018-09-28T05:24:35.616Z,7.86
2018-09-28T05:29:28.713Z,8.06
2018-09-28T05:34:21.899Z,8.32
2018-09-28T05:39:15.045Z,8.42
2018-09-28T05:44:08.253Z,8.56
2018-09-28T05:49:01.829Z,8.77
2018-09-28T05:53:55.160Z,8.95
2018-09-28T05:58:53.914Z,9.03
2018-09-28T06:03:53.000Z,9.20
2018-09-28T06:08:46.112Z,9.35
2018-09-28T06:13:39.278Z,9.64
2018-09-28T06:18:33.004Z,9.81
2018-09-28T06:23:26.351Z,9.99
2018-09-28T06:28:19.619Z,10.29
2018-09-28T06:33:12.835Z,10.54
2018-09-28T06:38:06.124Z,10.77
2018-09-28T06:42:59.461Z,10.85
2018-09-28T06:47:52.727Z,10.97
2018-09-28T06:52:46.044Z,10.99
2018-09-28T06:57:39.258Z,11.17
2018-09-28T07:02:32.616Z,11.31
2018-09-28T07:07:26.353Z,11.48
2018-09-28T07:12:19.871Z,11.77
2018-09-28T07:17:13.064Z,11.93
2018-09-28T07:22:06.753Z,12.13
2018-09-28T07:26:59.989Z,12.32
2018-09-28T07:31:53.518Z,12.37
2018-09-28T07:36:46.829Z,12.53
2018-09-28T07:41:41.293Z,12.72
2018-09-28T07:46:34.856Z,13.01
2018-09-28T07:51:28.050Z,13.07
2018-09-28T07:56:21.389Z,13.24
2018-09-28T08:01:14.705Z,13.57
2018-09-28T08:06:07.970Z,13.73
2018-09-28T08:11:01.100Z,13.72
2018-09-28T08:15:56.228Z,13.94
2018-09-28T08:20:49.595Z,13.94
2018-09-28T08:25:42.808Z,13.99
2018-09-28T08:30:36.189Z,14.13
2018-09-28T08:35:29.621Z,14.13
2018-09-28T08:40:22.888Z,14.21
2018-09-28T08:45:16.395Z,14.29
2018-09-28T08:50:09.791Z,14.44
2018-09-28T08:55:03.149Z,14.48
2018-09-28T08:59:56.392Z,14.53
2018-09-28T09:04:49.662Z,14.78
2018-09-28T09:09:42.922Z,14.85
2018-09-28T09:14:36.101Z,15.03
2018-09-28T09:19:29.394Z,15.07
2018-09-28T09:24:22.798Z,15.19
2018-09-28T09:29:16.009Z,15.34
2018-09-28T09:34:09.225Z,15.40
2018-09-28T09:39:02.493Z,15.54
2018-09-28T09:43:55.739Z,15.58
2018-09-28T09:48:49.141Z,15.85
2018-09-28T09:53:42.282Z,16.01
2018-09-28T09:58:35.598Z,15.91
2018-09-28T10:03:34.347Z,15.93
2018-09-28T10:08:27.709Z,16.31
2018-09-28T10:13:21.008Z,16.30
2018-09-28T10:18:14.453Z,16.31
2018-09-28T10:23:07.933Z,16.40
2018-09-28T10:28:01.901Z,16.48
2018-09-28T10:32:56.127Z,16.61
2018-09-28T10:37:49.431Z,16.60
2018-09-28T10:42:42.651Z,16.70
2018-09-28T10:47:35.999Z,16.76
2018-09-28T10:52:29.423Z,16.97
2018-09-28T10:57:22.567Z,16.94
2018-09-28T11:02:16.133Z,17.09
2018-09-28T11:07:09.285Z,17.16
2018-09-28T11:12:02.809Z,17.37
2018-09-28T11:17:00.566Z,17.64
2018-09-28T11:21:54.037Z,17.69
2018-09-28T11:26:47.216Z,17.68
2018-09-28T11:31:40.519Z,17.79
2018-09-28T11:36:33.887Z,17.79
2018-09-28T11:41:27.286Z,17.72
2018-09-28T11:46:20.740Z,17.86
2018-09-28T11:51:14.100Z,17.83
2018-09-28T11:56:07.628Z,18.01
2018-09-28T12:01:02.360Z,18.17
2018-09-28T12:05:55.778Z,18.34
2018-09-28T12:10:49.046Z,18.34
2018-09-28T12:15:44.384Z,18.61
2018-09-28T12:20:37.632Z,18.69
2018-09-28T12:25:31.105Z,18.84
2018-09-28T12:30:24.772Z,18.95
2018-09-28T12:35:18.316Z,18.97
2018-09-28T12:40:11.541Z,19.12
2018-09-28T12:45:05.160Z,19.30
2018-09-28T12:49:58.412Z,19.23
2018-09-28T12:54:51.766Z,19.19
2018-09-28T12:59:45.010Z,19.08
2018-09-28T13:04:38.258Z,19.11
2018-09-28T13:09:31.668Z,19.05
2018-09-28T13:14:26.095Z,18.96
2018-09-28T13:19:19.562Z,18.96
2018-09-28T13:24:12.817Z,19.05
2018-09-28T13:29:06.202Z,19.16
2018-09-28T13:33:59.461Z,19.01
2018-09-28T13:38:53.445Z,19.20
2018-09-28T13:43:46.613Z,19.26
2018-09-28T13:48:39.807Z,19.01
2018-09-28T13:53:33.068Z,18.98
2018-09-28T13:58:26.472Z,18.94
2018-09-28T14:03:19.824Z,18.96
2018-09-28T14:08:13.204Z,18.95
2018-09-28T14:13:06.532Z,19.00
2018-09-28T14:18:01.460Z,18.85
2018-09-28T14:22:54.867Z,18.73
2018-09-28T14:27:48.114Z,18.70
2018-09-28T14:32:41.503Z,18.52
2018-09-28T14:37:34.895Z,18.44
2018-09-28T14:42:28.088Z,18.35
2018-09-28T14:47:21.356Z,18.40
2018-09-28T14:52:14.524Z,18.28
2018-09-28T14:57:07.965Z,18.24
2018-09-28T15:02:01.232Z,18.32
2018-09-28T15:06:54.699Z,18.07
2018-09-28T15:11:47.885Z,18.13
2018-09-28T15:16:41.208Z,18.02
2018-09-28T15:21:34.602Z,17.90
2018-09-28T15:26:29.785Z,17.80
2018-09-28T15:31:23.048Z,17.65
2018-09-28T15:36:16.235Z,17.43
2018-09-28T15:41:09.865Z,17.34
2018-09-28T15:46:03.070Z,17.07
2018-09-28T15:50:56.384Z,16.97
2018-09-28T15:55:50.119Z,16.81
2018-09-28T16:00:43.421Z,16.43
2018-09-28T16:05:37.127Z,16.29
2018-09-28T16:10:31.134Z,16.02
2018-09-28T16:15:24.455Z,15.93
2018-09-28T16:20:17.733Z,15.76
2018-09-28T16:25:13.604Z,15.63
2018-09-28T16:30:07.133Z,15.54
2018-09-28T16:35:00.974Z,15.52
2018-09-28T16:39:55.448Z,15.37
2018-09-28T16:44:48.665Z,15.11
2018-09-28T16:49:41.844Z,15.00
2018-09-28T16:54:35.354Z,14.82
2018-09-28T16:59:28.838Z,14.61
2018-09-28T17:04:22.009Z,14.43
2018-09-28T17:09:15.557Z,14.19
2018-09-28T17:14:08.762Z,13.84
2018-09-28T17:19:02.752Z,13.69
2018-09-28T17:23:56.018Z,13.51
2018-09-28T17:28:49.580Z,13.34
2018-09-28T17:33:42.791Z,13.03
2018-09-28T17:38:35.957Z,12.98
2018-09-28T17:43:29.214Z,12.90
2018-09-28T17:48:22.670Z,12.82
2018-09-28T17:53:15.959Z,12.89
2018-09-28T17:58:09.643Z,12.76
2018-09-28T18:03:03.096Z,12.68
2018-09-28T18:07:56.397Z,12.49
2018-09-28T18:12:49.960Z,12.45
2018-09-28T18:17:43.427Z,12.46
2018-09-28T18:22:36.861Z,12.53
2018-09-28T18:27:30.284Z,12.54
2018-09-28T18:32:23.673Z,12.34
2018-09-28T18:37:17.121Z,12.19
2018-09-28T18:42:10.288Z,12.16
2018-09-28T18:47:03.624Z,12.09
2018-09-28T18:51:56.840Z,12.16
2018-09-28T18:56:50.277Z,12.06
2018-09-28T19:01:43.689Z,11.97
2018-09-28T19:06:37.107Z,11.90
2018-09-28T19:11:30.704Z,11.90
2018-09-28T19:16:24.216Z,11.75
2018-09-28T19:21:17.628Z,11.85
2018-09-28T19:26:10.947Z,11.89
2018-09-28T19:31:04.441Z,11.79
2018-09-28T19:35:57.625Z,11.83
2018-09-28T19:40:50.868Z,11.79
2018-09-28T19:45:44.222Z,11.89
2018-09-28T19:50:37.511Z,11.84
2018-09-28T19:55:30.862Z,11.74
2018-09-28T20:00:24.074Z,11.69
2018-09-28T20:05:17.267Z,11.79
2018-09-28T20:10:10.608Z,11.91
2018-09-28T20:15:03.945Z,12.04
2018-09-28T20:19:57.681Z,12.20
2018-09-28T20:24:50.848Z,12.30
2018-09-28T20:29:44.431Z,12.39
2018-09-28T20:34:37.629Z,12.43
2018-09-28T20:39:30.938Z,12.47
2018-09-28T20:44:24.354Z,12.19
2018-09-28T20:49:17.716Z,12.14
2018-09-28T20:54:10.930Z,11.97
2018-09-28T20:59:04.192Z,11.93
2018-09-28T21:03:57.514Z,11.87
2018-09-28T21:08:50.756Z,11.91
2018-09-28T21:13:43.999Z,11.87
2018-09-28T21:18:37.198Z,11.88
2018-09-28T21:23:30.419Z,11.83
2018-09-28T21:28:23.719Z,11.59
2018-09-28T21:33:17.518Z,11.66
2018-09-28T21:38:10.396Z,11.67
2018-09-28T21:43:03.538Z,11.70
2018-09-28T21:47:57.182Z,11.78
2018-09-28T21:52:50.510Z,11.80
2018-09-28T21:57:43.712Z,11.86
2018-09-28T22:02:37.727Z,11.85
2018-09-28T22:07:31.008Z,11.94
2018-09-28T22:12:24.320Z,12.09
2018-09-28T22:17:17.652Z,12.10
2018-09-28T22:22:11.212Z,12.00
2018-09-28T22:27:04.482Z,12.06
2018-09-28T22:31:57.771Z,12.09
2018-09-28T22:36:50.959Z,12.10
2018-09-28T22:41:44.173Z,11.99
2018-09-28T22:46:37.763Z,11.95
2018-09-28T22:51:31.258Z,11.83
2018-09-28T22:56:24.459Z,11.60
2018-09-28T23:01:17.680Z,11.33
2018-09-28T23:06:10.882Z,11.16
2018-09-28T23:11:04.004Z,11.13
2018-09-28T23:15:58.320Z,11.14
2018-09-28T23:20:51.506Z,11.06
2018-09-28T23:25:45.073Z,10.86
2018-09-28T23:30:38.264Z,10.86
2018-09-28T23:35:31.525Z,10.86
2018-09-28T23:40:24.993Z,10.71
2018-09-28T23:45:18.270Z,10.85
2018-09-28T23:50:11.648Z,10.92
2018-09-28T23:55:05.050Z,10.98
2018-09-28T23:59:58.314Z,11.13
